createdAt,value
2023-03-24T00:01:24.447Z,78.23
2023-03-24T00:04:11.756Z,77.45
2023-03-24T00:06:58.692Z,78.14
2023-03-24T00:09:45.713Z,77.48
2023-03-24T00:12:35.182Z,77.22
2023-03-24T00:15:22.385Z,77.20
2023-03-24T00:18:12.904Z,77.03
2023-03-24T00:21:00.084Z,76.91
2023-03-24T00:23:48.814Z,78.17
2023-03-24T00:26:37.217Z,77.52
2023-03-24T00:29:26.284Z,77.42
2023-03-24T00:32:13.963Z,76.89
2023-03-24T00:35:00.869Z,76.96
2023-03-24T00:37:48.114Z,77.39
2023-03-24T00:40:37.580Z,77.92
2023-03-24T00:43:24.667Z,76.95
2023-03-24T00:46:21.055Z,77.83
2023-03-24T00:49:08.128Z,78.27
2023-03-24T00:52:01.295Z,78.04
2023-03-24T00:54:48.340Z,78.12
2023-03-24T00:57:46.854Z,77.04
2023-03-24T01:00:33.964Z,77.57
2023-03-24T01:03:21.941Z,77.88
2023-03-24T01:06:09.654Z,78.46
2023-03-24T01:08:56.659Z,77.14
2023-03-24T01:11:46.209Z,77.99
2023-03-24T01:14:33.663Z,77.63
2023-03-24T01:17:20.585Z,78.55
2023-03-24T01:20:07.458Z,77.15
2023-03-24T01:22:57.902Z,77.75
2023-03-24T01:25:44.948Z,77.29
2023-03-24T01:28:32.910Z,77.99
2023-03-24T01:31:19.822Z,78.52
2023-03-24T01:34:06.870Z,77.45
2023-03-24T01:36:54.122Z,78.54
2023-03-24T01:39:41.036Z,77.96
2023-03-24T01:42:37.119Z,78.77
2023-03-24T01:46:01.499Z,77.50
2023-03-24T01:49:12.673Z,78.35
2023-03-24T01:52:05.484Z,78.37
2023-03-24T01:54:57.657Z,78.50
2023-03-24T01:57:47.952Z,78.08
2023-03-24T02:00:37.756Z,78.52
2023-03-24T02:03:47.087Z,78.77
2023-03-24T02:06:35.400Z,79.01
2023-03-24T02:09:23.817Z,78.43
2023-03-24T02:12:10.649Z,78.73
2023-03-24T02:14:57.783Z,79.01
2023-03-24T02:18:02.642Z,78.83
2023-03-24T02:21:17.482Z,78.82
2023-03-24T02:24:16.765Z,78.10
2023-03-24T02:27:20.411Z,78.84
2023-03-24T02:30:38.461Z,78.74
2023-03-24T02:33:47.098Z,78.05
2023-03-24T02:36:43.411Z,78.80
2023-03-24T02:39:58.644Z,78.38
2023-03-24T02:42:57.802Z,78.67
2023-03-24T02:46:17.167Z,78.09
2023-03-24T02:49:13.254Z,78.57
2023-03-24T02:52:09.691Z,78.75
2023-03-24T02:55:07.445Z,78.59
2023-03-24T02:58:00.617Z,78.53
2023-03-24T03:01:12.307Z,79.17
2023-03-24T03:04:38.592Z,78.37
2023-03-24T03:07:28.511Z,79.39
2023-03-24T03:10:44.282Z,78.92
2023-03-24T03:13:39.840Z,78.80
2023-03-24T03:16:42.644Z,79.05
2023-03-24T03:19:38.328Z,78.68
2023-03-24T03:22:31.278Z,79.51
2023-03-24T03:25:21.939Z,79.50
2023-03-24T03:28:11.133Z,79.42
2023-03-24T03:31:02.544Z,79.04
2023-03-24T03:34:32.997Z,79.55
2023-03-24T03:38:05.479Z,79.37
2023-03-24T03:41:01.807Z,78.93
2023-03-24T03:43:54.817Z,79.64
2023-03-24T03:46:42.169Z,78.53
2023-03-24T03:49:33.709Z,78.30
2023-03-24T03:52:21.498Z,79.02
2023-03-24T03:55:10.971Z,79.50
2023-03-24T03:57:59.138Z,79.13
2023-03-24T04:01:03.063Z,79.02
2023-03-24T04:04:40.094Z,79.78
2023-03-24T04:07:51.686Z,79.62
2023-03-24T04:11:10.133Z,79.17
2023-03-24T04:14:45.318Z,79.46
2023-03-24T04:17:53.662Z,79.24
2023-03-24T04:21:19.866Z,79.38
2023-03-24T04:24:23.859Z,78.80
2023-03-24T04:27:21.055Z,78.83
2023-03-24T04:30:19.855Z,78.94
2023-03-24T04:33:14.859Z,79.24
2023-03-24T04:36:11.383Z,79.01
2023-03-24T04:39:08.091Z,79.46
2023-03-24T04:42:06.123Z,80.12
2023-03-24T04:44:53.676Z,79.70
2023-03-24T04:48:25.293Z,79.31
2023-03-24T04:51:32.836Z,78.90
2023-03-24T04:54:30.485Z,78.82
2023-03-24T04:57:24.447Z,79.90
2023-03-24T05:00:17.766Z,79.28
2023-03-24T05:02:46.170Z,79.63
2023-03-24T05:05:39.236Z,79.83
2023-03-24T05:08:26.335Z,79.26
2023-03-24T05:11:13.513Z,79.56
2023-03-24T05:14:07.618Z,80.24
2023-03-24T05:16:54.765Z,80.35
2023-03-24T05:19:43.566Z,79.29
2023-03-24T05:22:31.056Z,80.03
2023-03-24T05:25:18.939Z,80.12
2023-03-24T05:28:06.520Z,79.52
2023-03-24T05:30:34.462Z,79.70
2023-03-24T05:33:31.288Z,79.73
2023-03-24T05:36:19.209Z,79.83
2023-03-24T05:39:14.122Z,80.12
2023-03-24T05:42:20.778Z,80.70
2023-03-24T05:45:08.597Z,79.54
2023-03-24T05:47:57.979Z,79.60
2023-03-24T05:50:57.346Z,80.65
2023-03-24T05:53:44.584Z,80.56
2023-03-24T05:56:37.379Z,80.27
2023-03-24T05:59:24.620Z,80.30
2023-03-24T06:02:12.676Z,79.86
2023-03-24T06:04:49.004Z,80.51
2023-03-24T06:07:19.519Z,80.55
2023-03-24T06:09:51.079Z,79.48
2023-03-24T06:12:18.983Z,80.00
2023-03-24T06:15:05.204Z,80.90
2023-03-24T06:17:33.957Z,79.91
2023-03-24T06:20:15.140Z,79.59
2023-03-24T06:23:02.668Z,80.87
2023-03-24T06:25:37.319Z,80.51
2023-03-24T06:28:34.512Z,80.58
2023-03-24T06:31:07.576Z,79.99
2023-03-24T06:33:36.809Z,80.30
2023-03-24T06:36:07.562Z,80.39
2023-03-24T06:38:34.710Z,79.75
2023-03-24T06:41:05.181Z,80.97
2023-03-24T06:43:33.063Z,79.92
2023-03-24T06:46:01.178Z,80.19
2023-03-24T06:48:30.011Z,80.31
2023-03-24T06:51:03.590Z,79.88
2023-03-24T06:53:30.617Z,79.63
2023-03-24T06:55:57.872Z,80.00
2023-03-24T06:58:28.216Z,80.53
2023-03-24T07:01:18.209Z,79.87
2023-03-24T07:04:07.994Z,80.95
2023-03-24T07:07:05.029Z,79.87
2023-03-24T07:09:34.874Z,80.46
2023-03-24T07:12:03.615Z,79.66
2023-03-24T07:14:32.325Z,79.82
2023-03-24T07:17:02.112Z,80.25
2023-03-24T07:19:58.297Z,79.71
2023-03-24T07:22:51.754Z,81.05
2023-03-24T07:25:21.442Z,79.82
2023-03-24T07:27:56.481Z,81.29
2023-03-24T07:30:33.446Z,80.33
2023-03-24T07:33:07.846Z,80.11
2023-03-24T07:35:35.327Z,80.50
2023-03-24T07:38:02.875Z,80.32
2023-03-24T07:40:31.315Z,81.01
2023-03-24T07:43:07.779Z,81.04
2023-03-24T07:45:56.329Z,80.30
2023-03-24T07:48:27.172Z,80.64
2023-03-24T07:50:54.275Z,80.84
2023-03-24T07:53:45.855Z,80.40
2023-03-24T07:56:16.005Z,81.17
2023-03-24T07:58:51.786Z,80.17
2023-03-24T08:01:31.974Z,80.91
2023-03-24T08:04:03.753Z,80.96
2023-03-24T08:07:08.487Z,81.29
2023-03-24T08:09:35.484Z,80.35
2023-03-24T08:12:13.527Z,81.42
2023-03-24T08:14:47.108Z,80.33
2023-03-24T08:17:14.022Z,80.53
2023-03-24T08:19:52.433Z,81.09
2023-03-24T08:22:27.036Z,80.40
2023-03-24T08:24:53.883Z,81.50
2023-03-24T08:27:20.875Z,81.55
2023-03-24T08:29:48.194Z,81.38
2023-03-24T08:32:15.391Z,80.55
2023-03-24T08:34:42.318Z,80.72
2023-03-24T08:37:09.693Z,81.01
2023-03-24T08:39:36.622Z,81.40
2023-03-24T08:42:03.864Z,81.31
2023-03-24T08:44:32.928Z,80.90
2023-03-24T08:47:03.787Z,80.56
2023-03-24T08:49:30.703Z,81.12
2023-03-24T08:51:58.242Z,81.09
2023-03-24T08:54:26.269Z,81.02
2023-03-24T08:56:53.515Z,80.88
2023-03-24T08:59:20.571Z,80.79
2023-03-24T09:01:47.495Z,81.49
2023-03-24T09:04:14.581Z,81.43
2023-03-24T09:06:41.805Z,80.76
2023-03-24T09:09:08.724Z,80.50
2023-03-24T09:11:38.517Z,80.93
2023-03-24T09:14:05.906Z,81.31
2023-03-24T09:16:33.144Z,81.22
2023-03-24T09:19:00.103Z,80.59
2023-03-24T09:21:27.513Z,81.08
2023-03-24T09:23:54.343Z,81.33
2023-03-24T09:26:23.094Z,80.69
2023-03-24T09:28:50.079Z,81.17
2023-03-24T09:31:17.081Z,81.37
2023-03-24T09:33:43.982Z,81.08
2023-03-24T09:36:11.365Z,80.89
2023-03-24T09:38:38.369Z,80.44
2023-03-24T09:41:18.374Z,80.48
2023-03-24T09:43:56.793Z,80.86
2023-03-24T09:46:26.589Z,81.02
2023-03-24T09:48:56.266Z,80.92
2023-03-24T09:51:28.000Z,80.55
2023-03-24T09:54:10.287Z,80.83
2023-03-24T09:56:40.084Z,80.83
2023-03-24T09:59:11.199Z,80.81
2023-03-24T10:01:38.338Z,80.04
2023-03-24T10:04:14.925Z,80.13
2023-03-24T10:06:42.576Z,80.62
2023-03-24T10:09:32.085Z,80.42
2023-03-24T10:12:39.798Z,80.61
2023-03-24T10:18:11.195Z,80.46
2023-03-24T10:21:01.413Z,79.96
2023-03-24T10:23:31.080Z,80.17
2023-03-24T10:26:14.240Z,80.25
2023-03-24T10:28:41.462Z,79.95
2023-03-24T10:31:16.168Z,79.92
2023-03-24T10:33:45.395Z,80.25
2023-03-24T10:36:18.495Z,80.03
2023-03-24T10:38:46.458Z,79.95
2023-03-24T10:41:35.105Z,79.96
2023-03-24T10:44:02.457Z,80.28
2023-03-24T10:46:31.550Z,80.18
2023-03-24T10:49:10.288Z,80.07
2023-03-24T10:51:37.818Z,80.28
2023-03-24T10:54:28.114Z,80.10
2023-03-24T10:56:58.099Z,80.22
2023-03-24T10:59:37.507Z,80.59
2023-03-24T11:02:10.354Z,80.63
2023-03-24T11:04:39.943Z,80.53
2023-03-24T11:07:32.784Z,80.90
2023-03-24T11:10:26.843Z,80.88
2023-03-24T11:13:13.615Z,80.98
2023-03-24T11:16:13.851Z,81.20
2023-03-24T11:19:29.766Z,81.09
2023-03-24T11:22:22.706Z,81.23
2023-03-24T11:25:14.685Z,81.51
2023-03-24T11:28:02.897Z,81.54
2023-03-24T11:31:06.020Z,81.21
2023-03-24T11:33:56.653Z,81.21
2023-03-24T11:36:58.806Z,81.03
2023-03-24T11:39:48.978Z,81.16
2023-03-24T11:42:37.246Z,81.32
2023-03-24T11:45:41.781Z,81.17
2023-03-24T11:48:49.834Z,80.94
2023-03-24T11:51:48.275Z,81.04
2023-03-24T11:54:38.331Z,81.02
2023-03-24T11:57:34.212Z,80.92
2023-03-24T12:00:48.328Z,80.87
2023-03-24T12:03:50.634Z,80.92
2023-03-24T12:07:15.233Z,80.70
2023-03-24T12:10:08.852Z,80.92
2023-03-24T12:13:05.821Z,80.88
2023-03-24T12:16:02.148Z,80.45
2023-03-24T12:19:16.837Z,80.67
2023-03-24T12:22:15.666Z,80.98
2023-03-24T12:25:39.631Z,80.77
2023-03-24T12:28:36.996Z,80.94
2023-03-24T12:31:51.737Z,80.49
2023-03-24T12:35:03.625Z,81.05
2023-03-24T12:37:59.574Z,80.83
2023-03-24T12:41:13.796Z,80.83
2023-03-24T12:44:25.187Z,80.87
2023-03-24T12:47:21.084Z,80.74
2023-03-24T12:50:44.991Z,80.25
2023-03-24T12:54:11.482Z,80.24
2023-03-24T12:57:04.722Z,80.51
2023-03-24T12:59:57.634Z,80.40
2023-03-24T13:02:53.672Z,80.28
2023-03-24T13:05:53.436Z,79.99
2023-03-24T13:08:44.313Z,79.93
2023-03-24T13:11:33.824Z,79.89
2023-03-24T13:14:26.685Z,80.03
2023-03-24T13:17:20.706Z,79.85
2023-03-24T13:20:11.085Z,80.04
2023-03-24T13:22:59.075Z,79.69
2023-03-24T13:26:05.719Z,79.80
2023-03-24T13:29:21.619Z,79.66
2023-03-24T13:32:18.673Z,79.19
2023-03-24T13:35:21.315Z,79.32
2023-03-24T13:38:12.910Z,79.44
2023-03-24T13:41:01.330Z,79.44
2023-03-24T13:43:53.438Z,79.21
2023-03-24T13:46:40.412Z,79.35
2023-03-24T13:49:34.031Z,79.02
2023-03-24T13:52:33.956Z,78.82
2023-03-24T13:55:27.996Z,78.80
2023-03-24T13:58:33.042Z,78.80
2023-03-24T14:01:08.996Z,78.71
2023-03-24T14:03:41.024Z,78.52
2023-03-24T14:06:18.423Z,78.18
2023-03-24T14:08:52.377Z,78.36
2023-03-24T14:11:38.257Z,78.09
2023-03-24T14:14:06.530Z,77.95
2023-03-24T14:16:33.456Z,77.73
2023-03-24T14:19:18.663Z,77.70
2023-03-24T14:21:52.673Z,77.44
2023-03-24T14:24:29.103Z,77.34
2023-03-24T14:26:56.612Z,77.35
2023-03-24T14:29:32.613Z,77.38
2023-03-24T14:32:17.246Z,76.96
2023-03-24T14:34:57.152Z,77.24
2023-03-24T14:37:25.807Z,76.64
2023-03-24T14:39:53.853Z,77.08
2023-03-24T14:42:32.706Z,77.07
2023-03-24T14:45:51.177Z,76.84
2023-03-24T14:48:36.581Z,76.46
2023-03-24T14:51:12.985Z,76.23
2023-03-24T14:53:41.616Z,76.23
2023-03-24T14:56:16.322Z,76.11
2023-03-24T14:58:48.083Z,76.13
2023-03-24T15:01:17.365Z,75.81
2023-03-24T15:04:09.218Z,76.41
2023-03-24T15:06:47.652Z,76.13
2023-03-24T15:09:18.624Z,76.05
2023-03-24T15:11:48.141Z,76.22
2023-03-24T15:14:21.457Z,75.82
2023-03-24T15:17:18.356Z,75.76
2023-03-24T15:19:46.842Z,75.69
2023-03-24T15:22:14.017Z,75.98
2023-03-24T15:24:42.536Z,75.65
2023-03-24T15:27:23.565Z,75.89
2023-03-24T15:30:04.859Z,75.48
2023-03-24T15:32:33.026Z,73.05
2023-03-24T15:35:08.874Z,73.55
2023-03-24T15:37:41.339Z,74.01
2023-03-24T15:40:31.703Z,74.03
2023-03-24T15:43:04.605Z,74.31
2023-03-24T15:45:35.005Z,74.42
2023-03-24T15:48:13.171Z,74.15
2023-03-24T15:50:53.828Z,74.17
2023-03-24T15:53:25.185Z,74.53
2023-03-24T15:56:26.156Z,74.32
2023-03-24T15:58:57.669Z,74.22
2023-03-24T16:01:27.759Z,74.33
2023-03-24T16:03:55.296Z,74.47
2023-03-24T16:06:30.159Z,74.92
2023-03-24T16:09:02.154Z,74.19
2023-03-24T16:11:29.704Z,74.36
2023-03-24T16:13:57.916Z,74.19
2023-03-24T16:16:29.141Z,74.30
2023-03-24T16:18:58.106Z,74.53
2023-03-24T16:21:28.185Z,74.74
2023-03-24T16:23:57.149Z,74.38
2023-03-24T16:26:26.569Z,74.89
2023-03-24T16:28:54.614Z,74.41
2023-03-24T16:31:36.432Z,74.68
2023-03-24T16:34:03.413Z,74.43
2023-03-24T16:36:30.425Z,74.57
2023-03-24T16:38:59.744Z,74.64
2023-03-24T16:41:27.544Z,74.39
2023-03-24T16:43:54.891Z,74.47
2023-03-24T16:46:33.144Z,74.48
2023-03-24T16:49:04.145Z,74.71
2023-03-24T16:51:31.842Z,74.89
2023-03-24T16:53:59.150Z,74.19
2023-03-24T16:56:26.730Z,74.89
2023-03-24T16:58:54.594Z,74.41
2023-03-24T17:01:33.857Z,74.28
2023-03-24T17:04:03.298Z,74.81
2023-03-24T17:06:33.059Z,74.36
2023-03-24T17:09:00.001Z,74.87
2023-03-24T17:11:32.994Z,74.94
2023-03-24T17:14:04.665Z,74.36
2023-03-24T17:16:36.964Z,74.73
2023-03-24T17:19:07.542Z,74.57
2023-03-24T17:21:38.539Z,74.28
2023-03-24T17:24:10.954Z,74.97
2023-03-24T17:26:38.888Z,74.57
2023-03-24T17:29:06.250Z,74.23
2023-03-24T17:31:33.981Z,74.77
2023-03-24T17:34:08.530Z,74.95
2023-03-24T17:36:49.891Z,74.47
2023-03-24T17:39:17.960Z,74.83
2023-03-24T17:41:45.204Z,74.31
2023-03-24T17:44:12.434Z,75.01
2023-03-24T17:46:39.501Z,74.32
2023-03-24T17:49:06.816Z,74.78
2023-03-24T17:51:34.017Z,74.73
2023-03-24T17:54:00.994Z,74.97
2023-03-24T17:56:27.901Z,75.08
2023-03-24T17:58:56.414Z,75.23
2023-03-24T18:01:23.833Z,75.02
2023-03-24T18:03:50.976Z,74.42
2023-03-24T18:06:18.251Z,74.15
2023-03-24T18:08:45.300Z,74.48
2023-03-24T18:11:14.528Z,74.45
2023-03-24T18:13:42.727Z,74.56
2023-03-24T18:16:20.627Z,74.71
2023-03-24T18:18:51.213Z,74.20
2023-03-24T18:21:19.281Z,74.84
2023-03-24T18:23:46.712Z,74.41
2023-03-24T18:26:14.987Z,74.54
2023-03-24T18:28:42.869Z,74.79
2023-03-24T18:31:12.797Z,75.04
2023-03-24T18:33:42.923Z,75.26
2023-03-24T18:36:10.670Z,74.85
2023-03-24T18:38:38.501Z,74.18
2023-03-24T18:41:07.791Z,74.67
2023-03-24T18:43:37.773Z,75.30
2023-03-24T18:46:09.304Z,74.96
2023-03-24T18:48:37.979Z,74.14
2023-03-24T18:51:05.972Z,75.12
2023-03-24T18:53:34.605Z,74.40
2023-03-24T18:56:02.517Z,74.60
2023-03-24T18:58:30.046Z,74.41
2023-03-24T19:00:58.388Z,74.90
2023-03-24T19:03:27.203Z,75.09
2023-03-24T19:05:54.299Z,74.91
2023-03-24T19:08:22.088Z,74.19
2023-03-24T19:10:49.842Z,75.02
2023-03-24T19:13:17.128Z,75.26
2023-03-24T19:15:48.902Z,74.98
2023-03-24T19:18:16.131Z,74.32
2023-03-24T19:20:43.269Z,75.32
2023-03-24T19:23:10.514Z,74.13
2023-03-24T19:25:37.564Z,75.15
2023-03-24T19:28:04.727Z,74.63
2023-03-24T19:30:31.738Z,75.19
2023-03-24T19:32:58.629Z,75.18
2023-03-24T19:35:26.171Z,74.94
2023-03-24T19:37:53.688Z,74.70
2023-03-24T19:40:20.978Z,74.38
2023-03-24T19:42:48.332Z,74.69
2023-03-24T19:45:17.355Z,74.92
2023-03-24T19:47:46.245Z,74.61
2023-03-24T19:50:15.614Z,74.60
2023-03-24T19:52:48.805Z,75.37
2023-03-24T19:55:15.962Z,74.84
2023-03-24T19:57:42.998Z,74.10
2023-03-24T20:00:14.506Z,75.40
2023-03-24T20:02:41.779Z,74.23
2023-03-24T20:05:09.977Z,75.30
2023-03-24T20:07:37.531Z,74.59
2023-03-24T20:10:04.874Z,75.43
2023-03-24T20:12:32.289Z,74.62
2023-03-24T20:14:59.391Z,75.31
2023-03-24T20:17:28.690Z,75.59
2023-03-24T20:19:56.062Z,75.46
2023-03-24T20:22:23.160Z,75.55
2023-03-24T20:24:50.322Z,74.10
2023-03-24T20:27:17.337Z,74.45
2023-03-24T20:29:45.993Z,74.94
2023-03-24T20:32:13.761Z,74.91
2023-03-24T20:34:40.886Z,74.15
2023-03-24T20:37:08.481Z,74.58
2023-03-24T20:39:35.478Z,74.26
2023-03-24T20:42:02.588Z,74.27
2023-03-24T20:44:29.648Z,74.59
2023-03-24T20:47:00.775Z,75.40
2023-03-24T20:49:27.960Z,74.28
2023-03-24T20:51:54.878Z,75.25
2023-03-24T20:54:21.924Z,74.41
2023-03-24T20:56:52.544Z,74.81
2023-03-24T20:59:19.796Z,75.42
2023-03-24T21:01:48.666Z,74.58
2023-03-24T21:04:17.728Z,75.54
2023-03-24T21:06:45.026Z,74.32
2023-03-24T21:09:13.236Z,74.11
2023-03-24T21:11:40.415Z,74.50
2023-03-24T21:14:07.638Z,74.34
2023-03-24T21:16:37.506Z,74.96
2023-03-24T21:19:04.963Z,74.60
2023-03-24T21:21:32.417Z,75.34
2023-03-24T21:24:00.565Z,73.94
2023-03-24T21:26:27.808Z,74.50
2023-03-24T21:28:54.750Z,75.20
2023-03-24T21:31:23.402Z,75.06
2023-03-24T21:33:50.952Z,74.98
2023-03-24T21:36:18.646Z,73.89
2023-03-24T21:38:49.525Z,74.34
2023-03-24T21:41:17.719Z,74.66
2023-03-24T21:43:46.905Z,74.25
2023-03-24T21:46:21.016Z,74.74
2023-03-24T21:48:51.469Z,73.97
2023-03-24T21:51:24.169Z,74.78
2023-03-24T21:53:52.384Z,74.20
2023-03-24T21:56:20.300Z,75.24
2023-03-24T21:58:47.617Z,74.83
2023-03-24T22:01:15.355Z,75.12
2023-03-24T22:03:42.196Z,74.61
2023-03-24T22:06:12.132Z,75.21
2023-03-24T22:08:43.441Z,74.39
2023-03-24T22:11:11.018Z,74.65
2023-03-24T22:13:39.345Z,73.96
2023-03-24T22:16:07.188Z,73.83
2023-03-24T22:18:34.931Z,75.13
2023-03-24T22:21:06.927Z,74.68
2023-03-24T22:23:36.800Z,74.55
2023-03-24T22:26:16.766Z,74.39
2023-03-24T22:28:44.307Z,74.02
2023-03-24T22:31:13.908Z,74.81
2023-03-24T22:33:41.213Z,74.91
2023-03-24T22:36:09.225Z,74.85
2023-03-24T22:38:36.180Z,75.10
2023-03-24T22:41:08.308Z,74.95
2023-03-24T22:43:36.622Z,74.66
2023-03-24T22:46:04.005Z,74.60
2023-03-24T22:48:31.338Z,74.25
2023-03-24T22:50:58.649Z,74.96
2023-03-24T22:53:25.922Z,74.53
2023-03-24T22:55:53.275Z,74.64
2023-03-24T22:58:20.594Z,74.33
2023-03-24T23:00:49.543Z,74.69
2023-03-24T23:03:16.697Z,74.04
2023-03-24T23:05:46.023Z,74.35
2023-03-24T23:08:15.428Z,74.00
2023-03-24T23:10:44.803Z,74.84
2023-03-24T23:13:12.613Z,74.93
2023-03-24T23:15:42.516Z,74.05
2023-03-24T23:18:10.486Z,74.23
2023-03-24T23:20:37.732Z,74.73
2023-03-24T23:23:06.753Z,74.36
2023-03-24T23:25:44.497Z,74.72
2023-03-24T23:28:12.877Z,74.95
2023-03-24T23:30:40.628Z,74.26
2023-03-24T23:33:07.998Z,73.98
2023-03-24T23:35:37.494Z,74.64
2023-03-24T23:38:06.787Z,74.22
2023-03-24T23:40:33.779Z,73.71
2023-03-24T23:43:02.219Z,74.79
2023-03-24T23:45:29.215Z,74.91
2023-03-24T23:47:56.865Z,74.16
2023-03-24T23:50:23.944Z,74.57
2023-03-24T23:52:50.913Z,73.82
2023-03-24T23:55:18.429Z,74.48
2023-03-24T23:57:46.373Z,74.66
